Time;durP1;ratioP1;P1;durP2;ratioP2;P2;SDS_P1;SDS_P2;PMS_P1;PMS_P2;Temp;Humidity;BMP_temperature;BMP_pressure;BME280_temperature;BME280_humidity;BME280_pressure;Samples;Min_cycle;Max_cycle;Signal;HPM_P1;HPM_P2
2021/11/30 00:01:06;;;;;;;7.57;3.97;;;;;;;-5.01;85.39;98546.63;4879802;29;20072;-70
2021/11/30 00:03:35;;;;;;;2.35;2.10;;;;;;;-5.06;85.90;98517.59;4880643;29;20060;-70
2021/11/30 00:06:02;;;;;;;2.85;2.65;;;;;;;-5.07;85.70;98526.34;4880779;29;20052;-69
2021/11/30 00:08:30;;;;;;;4.53;2.50;;;;;;;-5.06;86.47;98512.41;4880039;29;20490;-67
2021/11/30 00:10:58;;;;;;;2.33;2.13;;;;;;;-5.41;86.09;98458.91;4879657;29;20069;-73
2021/11/30 00:13:26;;;;;;;8.73;2.40;;;;;;;-4.98;86.35;98520.41;4881175;29;20045;-69
2021/11/30 00:15:52;;;;;;;2.38;2.17;;;;;;;-5.06;85.88;98486.47;4879812;29;20084;-69
2021/11/30 00:18:18;;;;;;;2.40;2.20;;;;;;;-5.35;85.67;98442.84;4880658;29;20084;-69
2021/11/30 00:20:44;;;;;;;3.10;2.27;;;;;;;-4.96;86.48;98484.78;4881334;29;20131;-70
2021/11/30 00:23:12;;;;;;;2.60;2.40;;;;;;;-4.95;85.70;98478.66;4882545;29;20036;-69
2021/11/30 00:25:37;;;;;;;2.35;2.13;;;;;;;-4.94;86.27;98482.88;4881721;29;20096;-69
2021/11/30 00:28:05;;;;;;;3.93;2.30;;;;;;;-4.90;85.68;98481.72;4879633;29;20505;-70
2021/11/30 00:30:32;;;;;;;2.75;2.55;;;;;;;-4.89;85.86;98473.00;4863338;29;20037;-71
2021/11/30 00:32:59;;;;;;;2.90;2.70;;;;;;;-4.91;85.80;98455.88;4883784;29;20041;-69
2021/11/30 00:35:25;;;;;;;2.60;2.40;;;;;;;-4.85;86.18;98464.00;4867643;29;20041;-68
2021/11/30 00:38:17;;;;;;;2.60;2.30;;;;;;;-4.81;86.04;98460.22;4883263;29;20152;-68
2021/11/30 00:40:45;;;;;;;2.50;2.30;;;;;;;-4.81;86.00;98449.84;4884026;29;20052;-67
2021/11/30 00:43:19;;;;;;;3.03;2.50;;;;;;;-4.93;85.67;98419.63;4881081;29;20502;-70
2021/11/30 00:45:58;;;;;;;3.28;2.53;;;;;;;-4.84;85.45;98424.13;4883259;29;20037;-71
2021/11/30 00:48:30;;;;;;;6.68;3.00;;;;;;;-4.97;85.89;98397.47;4879169;29;20040;-71
2021/11/30 00:51:01;;;;;;;3.42;3.13;;;;;;;-4.86;85.91;98415.63;4880140;29;20033;-69
2021/11/30 00:53:27;;;;;;;2.50;2.17;;;;;;;-4.75;85.54;98410.38;4883655;29;20047;-68
2021/11/30 00:55:53;;;;;;;4.03;2.65;;;;;;;-4.83;85.26;98388.59;4883527;29;20468;-71
2021/11/30 00:58:19;;;;;;;5.00;3.77;;;;;;;-4.79;86.05;98385.63;4882152;29;20088;-70
2021/11/30 01:00:44;;;;;;;3.47;3.03;;;;;;;-4.78;85.82;98387.25;4881232;29;20074;-69
2021/11/30 01:03:11;;;;;;;4.30;3.40;;;;;;;-4.85;86.86;98354.16;4879360;29;20056;-68
2021/11/30 01:05:37;;;;;;;5.97;3.03;;;;;;;-4.81;84.89;98353.75;4880270;29;20488;-69
2021/11/30 01:08:04;;;;;;;3.78;2.78;;;;;;;-4.67;86.05;98368.22;4878416;29;20124;-70
2021/11/30 01:10:30;;;;;;;2.67;2.47;;;;;;;-4.69;85.80;98363.13;4880422;29;20093;-70
2021/11/30 01:12:56;;;;;;;4.40;3.70;;;;;;;-4.80;86.22;98334.66;4881743;29;20105;-66
2021/11/30 01:15:23;;;;;;;3.13;2.83;;;;;;;-4.85;85.35;98318.63;4881589;29;20045;-71
2021/11/30 01:17:49;;;;;;;3.22;2.88;;;;;;;-4.61;86.27;98346.13;4882424;29;20048;-70
2021/11/30 01:20:15;;;;;;;2.80;2.55;;;;;;;-4.69;85.84;98329.38;4882175;29;20049;-69
2021/11/30 01:22:41;;;;;;;4.67;3.10;;;;;;;-4.73;85.54;98317.59;4862749;29;20403;-71
2021/11/30 01:25:08;;;;;;;3.40;2.40;;;;;;;-4.88;85.66;98290.31;4880349;29;20493;-70
2021/11/30 01:27:35;;;;;;;3.28;2.58;;;;;;;-5.24;85.78;98228.41;4863263;29;20524;-71
2021/11/30 01:30:00;;;;;;;3.95;2.42;;;;;;;-4.69;85.13;98308.59;4880162;29;20085;-69
2021/11/30 01:32:26;;;;;;;2.50;2.30;;;;;;;-4.75;84.94;98293.53;4883991;29;20081;-69
2021/11/30 01:34:52;;;;;;;3.90;2.73;;;;;;;-4.64;85.79;98304.81;4886543;29;20505;-69
2021/11/30 01:37:17;;;;;;;3.17;2.90;;;;;;;-4.63;85.37;98281.31;4884227;29;20061;-70
2021/11/30 01:39:46;;;;;;;2.28;2.08;;;;;;;-4.66;85.71;98281.56;4865827;29;20045;-70
2021/11/30 01:42:14;;;;;;;2.38;1.92;;;;;;;-4.61;85.72;98281.19;4882336;29;20049;-74
2021/11/30 01:45:04;;;;;;;2.45;2.25;;;;;;;-4.56;85.28;98260.84;4881311;29;20528;-66
2021/11/30 01:50:00;;;;;;;2.50;2.30;;;;;;;-4.57;85.26;98246.22;4884114;29;20155;-65
2021/11/30 01:52:27;;;;;;;2.83;2.45;;;;;;;-4.57;84.96;98241.84;4884240;29;20116;-69
2021/11/30 01:54:55;;;;;;;2.42;2.22;;;;;;;-4.40;85.00;98248.19;4867708;29;20073;-70
2021/11/30 01:57:23;;;;;;;2.90;2.67;;;;;;;-4.43;84.47;98235.47;4884162;29;20037;-72
2021/11/30 01:59:51;;;;;;;2.78;2.47;;;;;;;-4.37;84.54;98224.56;4884380;29;20048;-72
2021/11/30 02:02:18;;;;;;;3.38;2.60;;;;;;;-4.41;84.92;98223.19;4884465;29;20144;-70
2021/11/30 02:04:46;;;;;;;4.90;2.38;;;;;;;-4.37;84.21;98225.38;4868097;29;20049;-71
2021/11/30 02:07:13;;;;;;;2.38;2.13;;;;;;;-4.34;84.82;98219.09;4867416;29;20045;-71
2021/11/30 02:09:40;;;;;;;3.33;2.50;;;;;;;-4.32;85.12;98217.22;4883199;29;20046;-68
2021/11/30 02:12:07;;;;;;;3.97;3.08;;;;;;;-4.40;85.21;98193.66;4883686;29;20413;-69
2021/11/30 02:14:34;;;;;;;3.42;2.67;;;;;;;-4.38;85.05;98197.75;4883529;29;20478;-68
2021/11/30 02:17:01;;;;;;;2.78;2.50;;;;;;;-4.33;84.60;98181.81;4883696;29;20037;-69
2021/11/30 02:19:28;;;;;;;4.55;3.38;;;;;;;-4.23;84.30;98195.63;4883855;29;20089;-69
2021/11/30 02:21:54;;;;;;;4.90;3.25;;;;;;;-4.28;84.71;98192.63;4883160;29;20043;-71
2021/11/30 02:24:20;;;;;;;3.92;3.05;;;;;;;-4.38;84.86;98166.56;4882597;29;20108;-68
2021/11/30 02:26:46;;;;;;;3.80;2.67;;;;;;;-4.34;84.49;98181.91;4883500;29;20045;-67
2021/11/30 02:29:12;;;;;;;2.60;2.40;;;;;;;-4.30;84.44;98163.34;4867076;29;20045;-69
2021/11/30 02:31:45;;;;;;;3.17;2.97;;;;;;;-4.30;83.85;98152.94;4884818;29;20045;-70
2021/11/30 02:34:11;;;;;;;2.63;2.42;;;;;;;-4.26;84.06;98153.50;4867183;29;20165;-70
2021/11/30 02:39:08;;;;;;;3.45;2.50;;;;;;;-4.27;84.43;98133.66;4882222;29;20458;-68
2021/11/30 02:41:37;;;;;;;3.17;2.50;;;;;;;-4.28;84.26;98135.44;4884076;29;20132;-67
2021/11/30 02:44:04;;;;;;;2.58;2.38;;;;;;;-4.22;84.17;98128.88;4884891;29;20124;-69
2021/11/30 02:46:46;;;;;;;2.42;2.22;;;;;;;-4.29;84.10;98118.22;4884004;29;20033;-69
2021/11/30 02:49:20;;;;;;;2.72;2.40;;;;;;;-4.28;83.93;98099.06;4867903;29;20458;-67
2021/11/30 02:51:51;;;;;;;2.10;1.90;;;;;;;-4.40;83.69;98080.16;4882609;29;20519;-70
2021/11/30 02:54:19;;;;;;;3.63;2.40;;;;;;;-4.48;84.85;98066.22;4882164;29;20041;-68
2021/11/30 02:56:47;;;;;;;2.60;2.40;;;;;;;-4.37;84.76;98074.69;4886052;29;20064;-66
2021/11/30 02:59:13;;;;;;;2.33;2.13;;;;;;;-4.23;84.55;98083.88;4867954;29;20053;-68
2021/11/30 03:01:51;;;;;;;2.95;2.33;;;;;;;-4.34;84.22;98060.59;4883106;29;20056;-69
2021/11/30 03:04:16;;;;;;;3.92;2.20;;;;;;;-4.18;84.33;98079.09;4866130;29;20049;-68
2021/11/30 03:06:42;;;;;;;2.67;2.20;;;;;;;-4.15;84.30;98076.22;4883006;29;20090;-72
2021/11/30 03:09:09;;;;;;;3.33;2.57;;;;;;;-4.16;84.71;98069.38;4881579;29;20568;-68
2021/11/30 03:11:35;;;;;;;2.75;2.33;;;;;;;-4.14;84.25;98056.25;4882283;29;20180;-69
2021/11/30 03:14:01;;;;;;;3.00;2.50;;;;;;;-4.05;83.98;98055.44;4882609;29;20136;-68
2021/11/30 03:16:27;;;;;;;2.83;2.57;;;;;;;-4.08;84.18;98046.13;4881845;29;20456;-71
2021/11/30 03:18:53;;;;;;;3.37;2.90;;;;;;;-4.08;83.54;98040.94;4881424;29;20076;-69
2021/11/30 03:21:19;;;;;;;3.50;3.20;;;;;;;-4.00;83.78;98050.66;4879808;29;20132;-68
2021/11/30 03:23:45;;;;;;;2.50;2.30;;;;;;;-4.07;84.17;98037.38;4865079;29;20162;-70
2021/11/30 03:26:10;;;;;;;6.47;2.77;;;;;;;-3.99;83.89;98047.09;4879555;29;20278;-67
2021/11/30 03:28:36;;;;;;;2.90;2.60;;;;;;;-3.96;84.28;98038.22;4879450;29;20115;-67
2021/11/30 03:31:07;;;;;;;2.92;2.10;;;;;;;-4.00;83.98;98042.03;4879142;29;20045;-69
2021/11/30 03:36:19;;;;;;;2.90;2.70;;;;;;;-3.97;83.47;98026.16;4879235;29;20063;-72
2021/11/30 03:38:46;;;;;;;2.63;2.08;;;;;;;-3.97;83.76;98013.19;4880519;29;20049;-67
2021/11/30 03:41:12;;;;;;;3.28;2.75;;;;;;;-3.94;83.76;98012.91;4879143;29;20039;-70
2021/11/30 03:43:39;;;;;;;3.20;2.65;;;;;;;-3.96;83.61;97994.00;4878785;29;20044;-69
2021/11/30 03:46:05;;;;;;;2.55;2.35;;;;;;;-4.12;83.82;97974.59;4879014;29;20037;-69
2021/11/30 03:48:31;;;;;;;2.38;2.17;;;;;;;-3.89;83.63;97997.69;4879033;29;20391;-69
2021/11/30 03:50:57;;;;;;;3.60;2.60;;;;;;;-4.36;83.65;97911.84;4878953;29;20048;-69
2021/11/30 03:53:23;;;;;;;2.87;2.57;;;;;;;-3.88;83.86;97976.75;4878850;29;20049;-70
2021/11/30 03:55:49;;;;;;;3.30;2.65;;;;;;;-4.03;84.08;97954.75;4878999;29;20104;-70
2021/11/30 03:58:15;;;;;;;3.07;2.57;;;;;;;-3.94;84.45;97961.72;4879829;29;20544;-67
2021/11/30 04:00:41;;;;;;;4.07;2.43;;;;;;;-3.87;83.98;97967.16;4879705;29;20033;-68
2021/11/30 04:03:08;;;;;;;3.92;2.60;;;;;;;-3.82;84.27;97960.59;4861840;29;20091;-68
2021/11/30 04:05:34;;;;;;;3.90;2.97;;;;;;;-4.01;84.53;97932.06;4878828;29;20041;-68
2021/11/30 04:08:00;;;;;;;3.03;2.73;;;;;;;-4.06;84.55;97924.66;4880494;29;20041;-69
2021/11/30 04:10:26;;;;;;;3.00;2.67;;;;;;;-3.87;84.51;97955.00;4882705;29;20350;-69
2021/11/30 04:12:52;;;;;;;4.77;3.67;;;;;;;-3.95;83.89;97922.88;4879472;29;20036;-70
2021/11/30 04:15:18;;;;;;;2.85;2.50;;;;;;;-3.84;84.00;97946.09;4878756;29;20532;-69
2021/11/30 04:17:44;;;;;;;4.57;2.60;;;;;;;-3.88;84.31;97923.94;4878865;29;20055;-70
2021/11/30 04:20:11;;;;;;;3.30;2.30;;;;;;;-3.89;83.45;97912.72;4878526;29;20037;-71
2021/11/30 04:22:37;;;;;;;3.47;3.17;;;;;;;-3.96;83.79;97903.03;4878419;29;20033;-70
2021/11/30 04:25:07;;;;;;;5.13;3.40;;;;;;;-3.82;84.23;97920.75;4881195;29;20144;-67
2021/11/30 04:27:33;;;;;;;4.00;3.13;;;;;;;-3.90;83.89;97900.69;4881628;29;20052;-69
2021/11/30 04:29:59;;;;;;;3.37;2.67;;;;;;;-3.85;83.59;97906.25;4878731;29;20032;-67
2021/11/30 04:32:25;;;;;;;3.00;2.53;;;;;;;-3.82;83.15;97897.34;4878475;29;20056;-68
2021/11/30 04:34:51;;;;;;;3.17;2.88;;;;;;;-3.68;83.84;97904.72;4878296;29;20093;-71
2021/11/30 04:37:17;;;;;;;3.00;2.67;;;;;;;-3.79;83.17;97897.06;4878371;29;20041;-69
2021/11/30 04:39:42;;;;;;;2.50;2.30;;;;;;;-3.80;83.34;97890.22;4878790;29;20061;-69
2021/11/30 04:42:08;;;;;;;2.83;2.50;;;;;;;-3.74;83.11;97894.88;4878569;29;20037;-69
2021/11/30 04:44:35;;;;;;;2.50;2.30;;;;;;;-3.73;83.63;97887.91;4878354;29;20105;-71
2021/11/30 04:47:06;;;;;;;5.32;2.63;;;;;;;-3.73;84.20;97885.31;4882488;29;20473;-67
2021/11/30 04:51:59;;;;;;;2.80;2.50;;;;;;;-3.90;83.64;97846.06;4878259;29;20076;-69
2021/11/30 04:54:25;;;;;;;2.63;2.38;;;;;;;-3.71;83.34;97878.19;4878149;29;20041;-72
2021/11/30 04:56:51;;;;;;;4.07;2.78;;;;;;;-3.72;83.33;97882.56;4878293;29;20522;-70
2021/11/30 04:59:19;;;;;;;3.28;2.35;;;;;;;-3.68;83.87;97873.50;4878132;29;20101;-65
2021/11/30 05:01:45;;;;;;;3.33;2.33;;;;;;;-3.77;83.75;97856.13;4878292;29;20506;-68
2021/11/30 05:04:12;;;;;;;4.00;3.58;;;;;;;-3.73;83.74;97838.50;4861768;29;20458;-70
2021/11/30 05:06:38;;;;;;;2.92;2.60;;;;;;;-3.69;83.34;97843.25;4879194;29;20053;-70
2021/11/30 05:09:04;;;;;;;2.73;2.53;;;;;;;-3.64;83.06;97838.44;4882235;29;20404;-70
2021/11/30 05:11:30;;;;;;;3.20;2.50;;;;;;;-3.67;83.61;97830.94;4882016;29;20033;-66
2021/11/30 05:13:56;;;;;;;3.58;2.50;;;;;;;-3.65;82.70;97825.56;4865016;29;20048;-69
2021/11/30 05:16:22;;;;;;;3.77;2.40;;;;;;;-3.60;82.94;97821.56;4881590;29;20540;-71
2021/11/30 05:18:47;;;;;;;2.63;2.43;;;;;;;-3.58;82.70;97837.84;4864744;29;20069;-72
2021/11/30 05:21:13;;;;;;;2.30;2.07;;;;;;;-3.54;83.05;97828.78;4881664;29;20033;-71
2021/11/30 05:23:41;;;;;;;2.73;2.20;;;;;;;-3.56;82.53;97817.72;4881693;29;20033;-68
2021/11/30 05:26:08;;;;;;;5.53;3.03;;;;;;;-3.58;83.14;97830.06;4881172;29;20037;-68
2021/11/30 05:28:36;;;;;;;2.50;2.00;;;;;;;-3.76;82.95;97793.63;4865522;29;20124;-67
2021/11/30 05:31:06;;;;;;;2.90;2.53;;;;;;;-3.54;84.05;97826.19;4882980;29;20565;-70
2021/11/30 05:33:32;;;;;;;2.92;2.33;;;;;;;-3.53;83.84;97824.41;4882206;29;20084;-68
2021/11/30 05:35:58;;;;;;;10.65;2.30;;;;;;;-3.54;83.73;97818.38;4864918;29;20581;-70
2021/11/30 05:38:25;;;;;;;3.50;2.83;;;;;;;-3.68;83.16;97786.84;4880809;29;20041;-75
2021/11/30 05:40:51;;;;;;;2.95;2.35;;;;;;;-3.53;83.84;97807.00;4881615;29;20265;-69
2021/11/30 05:43:17;;;;;;;3.13;2.17;;;;;;;-3.48;83.66;97807.38;4881654;29;20131;-68
2021/11/30 05:45:44;;;;;;;3.03;2.72;;;;;;;-3.72;83.91;97764.72;4882148;29;20053;-71
2021/11/30 05:48:10;;;;;;;2.97;2.67;;;;;;;-3.51;84.63;97799.06;4880953;29;20578;-70
2021/11/30 05:50:36;;;;;;;2.83;2.28;;;;;;;-3.58;83.65;97785.81;4881135;29;20405;-67
2021/11/30 05:53:02;;;;;;;5.57;2.40;;;;;;;-3.44;83.58;97794.94;4881605;29;20635;-68
2021/11/30 05:55:28;;;;;;;4.28;2.35;;;;;;;-3.49;83.82;97773.72;4881350;29;20372;-67
2021/11/30 05:57:54;;;;;;;4.97;4.03;;;;;;;-3.55;83.44;97756.09;4861135;29;20659;-69
2021/11/30 06:00:20;;;;;;;2.63;2.43;;;;;;;-3.38;84.33;97780.50;4861477;29;20414;-68
2021/11/30 06:05:16;;;;;;;5.20;2.47;;;;;;;-3.44;83.97;97774.94;4861918;29;20060;-67
2021/11/30 06:07:42;;;;;;;4.10;2.33;;;;;;;-3.43;84.10;97773.16;4845161;29;20406;-63
2021/11/30 06:10:08;;;;;;;6.83;3.50;;;;;;;-3.71;84.27;97711.75;4844800;29;20037;-64
2021/11/30 06:12:33;;;;;;;4.37;2.37;;;;;;;-3.58;83.76;97727.78;4861822;29;20033;-65
2021/11/30 06:14:59;;;;;;;4.47;2.83;;;;;;;-3.36;83.73;97755.97;4862805;29;20513;-63
2021/11/30 06:17:25;;;;;;;3.23;2.20;;;;;;;-3.34;83.84;97746.22;4862121;29;20402;-64
2021/11/30 06:19:50;;;;;;;4.33;2.50;;;;;;;-3.35;83.61;97741.19;4861218;29;20037;-63
2021/11/30 06:22:16;;;;;;;5.37;2.93;;;;;;;-3.22;83.86;97763.25;4861472;29;20128;-65
2021/11/30 06:24:41;;;;;;;4.27;2.50;;;;;;;-3.19;83.70;97756.94;4861499;29;20037;-65
2021/11/30 06:27:07;;;;;;;3.07;2.60;;;;;;;-3.36;83.57;97718.72;4861761;29;20093;-69
2021/11/30 06:29:33;;;;;;;5.43;3.27;;;;;;;-3.15;83.17;97745.28;4844866;29;20067;-65
2021/11/30 06:31:58;;;;;;;3.47;3.10;;;;;;;-3.15;83.33;97740.88;4861327;29;20131;-69
2021/11/30 06:34:24;;;;;;;5.60;3.40;;;;;;;-3.12;83.45;97737.16;4862652;29;20033;-75
2021/11/30 06:36:49;;;;;;;5.30;3.50;;;;;;;-3.06;83.67;97739.16;4847298;29;20048;-71
2021/11/30 06:39:15;;;;;;;4.37;2.97;;;;;;;-3.04;83.37;97733.78;4860489;29;20129;-70
2021/11/30 06:41:41;;;;;;;3.13;2.67;;;;;;;-3.06;83.20;97728.75;4860667;29;20047;-67
2021/11/30 06:44:06;;;;;;;3.80;3.13;;;;;;;-3.14;83.31;97729.50;4861605;29;20037;-72
2021/11/30 06:46:32;;;;;;;4.68;3.20;;;;;;;-3.26;83.71;97716.84;4861614;29;20529;-73
2021/11/30 06:48:58;;;;;;;4.93;3.47;;;;;;;-3.19;83.32;97715.28;4861454;29;20046;-71
2021/11/30 06:51:23;;;;;;;3.53;3.00;;;;;;;-3.40;83.70;97684.38;4844618;29;20041;-72
2021/11/30 06:53:49;;;;;;;3.43;2.90;;;;;;;-3.18;83.82;97715.16;4861573;29;20033;-68
2021/11/30 06:56:15;;;;;;;4.67;3.63;;;;;;;-3.29;84.85;97704.16;4845257;29;20443;-70
2021/11/30 06:58:41;;;;;;;4.87;2.77;;;;;;;-3.22;84.68;97707.78;4861028;29;20040;-65
2021/11/30 07:01:08;;;;;;;3.27;2.70;;;;;;;-3.25;84.15;97708.06;4861051;29;20037;-69
2021/11/30 07:03:36;;;;;;;5.93;3.05;;;;;;;-3.76;84.04;97631.53;4861090;29;20057;-67
2021/11/30 07:06:20;;;;;;;3.85;2.88;;;;;;;-3.27;84.73;97690.00;4860820;29;20038;-68
2021/11/30 07:08:49;;;;;;;4.10;3.22;;;;;;;-3.17;84.40;97690.75;4844452;29;20037;-71
2021/11/30 07:11:24;;;;;;;3.97;3.25;;;;;;;-3.27;84.72;97669.19;4861095;29;20029;-67
2021/11/30 07:13:50;;;;;;;4.03;2.97;;;;;;;-3.32;84.73;97662.81;4860564;29;20081;-71
2021/11/30 07:16:15;;;;;;;5.18;3.75;;;;;;;-3.24;85.44;97668.88;4860764;29;20072;-70
2021/11/30 07:18:41;;;;;;;3.50;2.63;;;;;;;-3.20;84.37;97664.19;4860259;29;20505;-66
2021/11/30 07:21:07;;;;;;;2.87;2.57;;;;;;;-3.08;84.56;97667.38;4842410;29;20469;-68
2021/11/30 07:23:33;;;;;;;3.70;2.90;;;;;;;-3.03;84.66;97668.56;4861133;29;20045;-68
2021/11/30 07:26:00;;;;;;;3.70;3.10;;;;;;;-3.04;84.67;97666.91;4860123;29;20451;-69
2021/11/30 07:28:29;;;;;;;4.60;3.28;;;;;;;-2.96;84.08;97660.94;4859503;29;20045;-71
2021/11/30 07:31:10;;;;;;;4.07;3.60;;;;;;;-3.00;84.10;97649.22;4843785;29;20050;-66
2021/11/30 07:33:37;;;;;;;3.55;2.75;;;;;;;-3.04;83.05;97653.91;4859987;29;20037;-65
2021/11/30 07:36:05;;;;;;;2.95;2.65;;;;;;;-3.04;83.25;97627.06;4860036;29;20151;-64
2021/11/30 07:38:33;;;;;;;4.13;3.15;;;;;;;-3.05;83.66;97615.81;4859858;29;20396;-68
2021/11/30 07:41:02;;;;;;;4.53;3.50;;;;;;;-2.94;84.10;97643.38;4860102;29;20097;-69
2021/11/30 07:43:27;;;;;;;4.25;2.90;;;;;;;-2.75;84.10;97644.97;4860361;29;20041;-68
2021/11/30 07:45:56;;;;;;;6.67;3.20;;;;;;;-2.78;83.80;97627.03;4859952;29;20132;-68
2021/11/30 07:48:23;;;;;;;3.95;2.88;;;;;;;-2.74;84.21;97628.38;4859926;29;20061;-68
2021/11/30 07:50:50;;;;;;;4.88;3.20;;;;;;;-3.17;83.30;97545.00;4860324;29;20033;-69
2021/11/30 07:53:16;;;;;;;3.20;2.90;;;;;;;-2.75;83.29;97624.13;4843508;29;20072;-66
2021/11/30 07:55:43;;;;;;;3.10;2.72;;;;;;;-2.74;82.78;97625.75;4859259;29;20089;-66
2021/11/30 07:58:08;;;;;;;9.40;3.20;;;;;;;-2.67;83.03;97618.94;4859155;29;20037;-67
2021/11/30 08:04:37;;;;;;;4.50;2.70;;;;;;;-2.76;81.79;97588.63;4840615;29;20060;-80
2021/11/30 08:07:17;;;;;;;4.18;3.13;;;;;;;-3.28;81.65;97500.19;4840569;29;20087;-75
2021/11/30 08:09:46;;;;;;;3.83;2.90;;;;;;;-2.63;82.34;97599.41;4824691;29;20047;-69
2021/11/30 08:12:16;;;;;;;4.15;3.20;;;;;;;-2.60;82.43;97612.16;4841405;29;20037;-67
2021/11/30 08:14:41;;;;;;;3.47;3.00;;;;;;;-3.19;82.22;97509.66;4842330;29;20049;-72
2021/11/30 08:17:13;;;;;;;4.30;3.90;;;;;;;-2.59;82.33;97603.38;4847124;29;20034;-71
2021/11/30 08:19:42;;;;;;;5.20;3.50;;;;;;;-2.58;82.93;97582.38;4843467;29;20098;-72
2021/11/30 08:22:08;;;;;;;3.47;3.10;;;;;;;-2.52;81.67;97588.75;4840982;29;20088;-68
2021/11/30 08:24:35;;;;;;;4.25;3.28;;;;;;;-2.53;82.03;97593.13;4841842;29;20034;-67
2021/11/30 08:27:02;;;;;;;2.95;2.65;;;;;;;-2.56;82.15;97583.03;4840816;29;20050;-68
2021/11/30 08:30:14;;;;;;;2.80;2.53;;;;;;;-2.47;82.57;97596.06;4822790;29;20042;-72
2021/11/30 08:32:41;;;;;;;3.67;3.03;;;;;;;-2.47;82.38;97593.47;4840327;29;20071;-72
2021/11/30 08:35:08;;;;;;;3.03;2.72;;;;;;;-2.55;82.10;97570.81;4839704;29;20046;-64
2021/11/30 08:37:34;;;;;;;5.75;2.92;;;;;;;-2.51;82.14;97575.56;4840347;29;20082;-69
2021/11/30 08:40:00;;;;;;;4.97;2.83;;;;;;;-2.39;82.30;97585.66;4841047;29;20038;-67
2021/11/30 08:42:26;;;;;;;2.83;2.58;;;;;;;-2.36;82.18;97574.94;4841016;29;20041;-73
2021/11/30 08:44:53;;;;;;;5.20;3.70;;;;;;;-2.35;81.98;97572.16;4841790;29;20117;-66
2021/11/30 08:47:21;;;;;;;3.15;2.88;;;;;;;-2.55;81.15;97529.13;4841975;29;20077;-69
2021/11/30 08:49:48;;;;;;;;;;;;;;;-2.21;81.78;97563.72;4845597;29;20042;-68
2021/11/30 08:52:18;;;;;;;3.70;3.20;;;;;;;-2.28;81.23;97547.09;4843941;29;20385;-70
2021/11/30 08:54:45;;;;;;;6.05;3.30;;;;;;;-2.25;81.56;97549.41;4844381;29;20530;-70
2021/11/30 08:57:11;;;;;;;3.03;2.72;;;;;;;-2.50;81.65;97509.44;4844098;29;20040;-69
2021/11/30 08:59:38;;;;;;;3.95;3.03;;;;;;;-2.55;81.53;97492.66;4845044;29;20045;-68
2021/11/30 09:02:05;;;;;;;5.68;3.58;;;;;;;-2.86;80.91;97443.75;4843673;29;20442;-67
2021/11/30 09:04:31;;;;;;;4.50;2.78;;;;;;;-2.17;80.61;97538.16;4866348;29;20060;-69
2021/11/30 09:06:57;;;;;;;4.32;3.17;;;;;;;-2.15;81.68;97533.59;4864884;29;20089;-69
2021/11/30 09:09:22;;;;;;;3.23;2.93;;;;;;;-2.12;80.82;97532.47;4872976;29;20029;-69
2021/11/30 09:11:48;;;;;;;5.70;2.60;;;;;;;-2.19;81.44;97519.25;4833568;29;20034;-68
2021/11/30 09:14:19;;;;;;;3.17;2.60;;;;;;;-2.47;80.90;97474.44;4863685;29;20061;-66
2021/11/30 09:20:26;;;;;;;5.43;2.92;;;;;;;-2.09;80.81;97485.19;4865439;29;20090;-73
2021/11/30 09:22:53;;;;;;;4.22;3.35;;;;;;;-1.88;80.54;97511.59;4865206;29;20490;-73
2021/11/30 09:25:20;;;;;;;3.10;2.53;;;;;;;-2.14;79.89;97469.22;4865608;29;20045;-70
2021/11/30 09:27:46;;;;;;;10.88;3.10;;;;;;;-2.16;80.33;97471.19;4862122;29;20132;-69
2021/11/30 09:30:16;;;;;;;4.03;3.07;;;;;;;-1.96;80.59;97498.56;4879027;29;20052;-70
2021/11/30 09:32:42;;;;;;;3.53;2.85;;;;;;;-2.09;80.45;97482.59;4868941;29;20037;-68
2021/11/30 09:35:12;;;;;;;3.60;3.30;;;;;;;-2.12;80.03;97473.31;4882534;29;20053;-70
2021/11/30 09:37:39;;;;;;;3.53;3.20;;;;;;;-2.40;80.99;97420.69;4883089;29;20454;-70
2021/11/30 09:40:12;;;;;;;3.72;3.35;;;;;;;-2.05;80.04;97470.84;4865826;29;20041;-70
2021/11/30 09:42:39;;;;;;;8.75;3.45;;;;;;;-2.02;80.59;97450.50;4879892;29;20037;-67
2021/11/30 09:45:07;;;;;;;3.37;2.77;;;;;;;-1.96;80.48;97457.66;4879171;29;20095;-69
2021/11/30 09:47:33;;;;;;;4.57;2.75;;;;;;;-2.19;79.58;97420.19;4879926;29;20284;-68
2021/11/30 09:50:00;;;;;;;2.80;2.60;;;;;;;-1.97;79.68;97450.00;4879699;29;20048;-69
2021/11/30 09:52:26;;;;;;;4.45;3.20;;;;;;;-1.90;79.86;97462.22;4878285;29;20481;-70
2021/11/30 09:54:52;;;;;;;3.93;2.50;;;;;;;-1.92;79.34;97463.38;4880783;29;20085;-70
2021/11/30 09:57:18;;;;;;;3.43;2.97;;;;;;;-2.05;79.82;97444.78;4882904;29;20065;-68
2021/11/30 09:59:47;;;;;;;3.85;3.08;;;;;;;-2.03;79.58;97450.63;4885424;29;20068;-70
2021/11/30 10:02:18;;;;;;;;;;;;;;;-1.95;79.78;97453.25;4883548;29;20052;-68
2021/11/30 10:04:45;;;;;;;10.30;2.80;;;;;;;-2.00;80.03;97432.91;4883611;29;19924;-74
2021/11/30 10:07:13;;;;;;;5.10;2.87;;;;;;;-2.08;79.93;97413.81;4885344;29;20065;-68
2021/11/30 10:09:39;;;;;;;5.03;3.28;;;;;;;-2.01;79.79;97407.81;4882684;29;20285;-66
2021/11/30 10:12:08;;;;;;;2.70;2.35;;;;;;;-1.67;80.19;97444.09;4881315;29;20037;-72
2021/11/30 10:14:41;;;;;;;4.20;2.50;;;;;;;-1.78;79.33;97415.72;4880618;29;20085;-73
2021/11/30 10:17:23;;;;;;;5.43;3.17;;;;;;;-1.65;79.44;97416.03;4863945;29;20382;-73
2021/11/30 10:20:01;;;;;;;8.93;4.28;;;;;;;-1.82;80.07;97388.34;4880195;29;20642;-72
2021/11/30 10:22:53;;;;;;;4.90;3.90;;;;;;;-1.49;79.70;97417.78;4880423;29;20037;-70
2021/11/30 10:25:35;;;;;;;7.03;5.13;;;;;;;-1.52;79.79;97406.84;4863390;29;20318;-70
2021/11/30 10:28:06;;;;;;;9.60;5.30;;;;;;;-1.44;79.67;97422.50;4878717;29;20279;-69
2021/11/30 10:30:35;;;;;;;5.57;4.27;;;;;;;-1.58;79.09;97398.72;4863281;29;20417;-68
2021/11/30 10:33:11;;;;;;;6.40;3.88;;;;;;;-1.46;79.75;97414.00;4877866;29;20304;-68
2021/11/30 10:35:37;;;;;;;7.50;4.20;;;;;;;-1.61;79.39;97386.03;4880731;29;20100;-71
2021/11/30 10:38:05;;;;;;;5.97;4.33;;;;;;;-1.48;79.60;97408.16;4881180;29;20785;-70
2021/11/30 10:40:34;;;;;;;16.33;11.73;;;;;;;-1.50;79.03;97404.88;4884318;29;20273;-71
2021/11/30 10:43:02;;;;;;;5.07;4.23;;;;;;;-1.51;79.12;97398.84;4850839;29;20829;-72
2021/11/30 10:45:48;;;;;;;8.48;3.70;;;;;;;-1.56;79.60;97383.72;4879752;29;20276;-70
2021/11/30 10:48:15;;;;;;;4.40;3.10;;;;;;;-1.52;80.13;97388.59;4879772;29;20041;-64
2021/11/30 10:50:46;;;;;;;5.23;3.17;;;;;;;-1.61;79.77;97377.38;4879100;29;20286;-68
2021/11/30 10:53:26;;;;;;;6.07;2.70;;;;;;;-1.52;80.02;97385.97;4879211;29;20360;-67
2021/11/30 10:55:54;;;;;;;4.97;2.63;;;;;;;-1.53;79.94;97379.13;4863417;29;20041;-69
2021/11/30 10:58:24;;;;;;;6.90;4.40;;;;;;;-1.71;78.23;97371.53;4879768;29;20045;-67
2021/11/30 11:00:51;;;;;;;5.15;4.00;;;;;;;-1.83;77.72;97358.03;4879358;29;20040;-66
2021/11/30 11:07:18;;;;;;;5.20;4.15;;;;;;;-1.93;76.79;97367.84;4858520;29;20778;-68
2021/11/30 11:10:03;;;;;;;8.05;4.93;;;;;;;-2.29;77.62;97310.09;4860593;29;20052;-67
2021/11/30 11:12:29;;;;;;;8.48;4.10;;;;;;;-2.42;77.10;97313.19;4859673;29;20041;-74
2021/11/30 11:15:00;;;;;;;2.93;2.50;;;;;;;-2.27;76.27;97361.06;4861496;29;20561;-72
2021/11/30 11:17:34;;;;;;;3.42;2.72;;;;;;;-2.53;76.30;97324.78;4861068;29;20509;-73
2021/11/30 11:20:24;;;;;;;3.53;2.65;;;;;;;-2.62;76.14;97356.19;4843064;29;20069;-71
2021/11/30 11:22:53;;;;;;;9.77;3.47;;;;;;;-2.88;76.96;97325.91;4842940;29;20053;-68
2021/11/30 11:25:29;;;;;;;3.50;3.00;;;;;;;-2.88;76.09;97346.75;4860879;29;20124;-67
2021/11/30 11:27:58;;;;;;;3.83;2.85;;;;;;;-2.91;76.96;97347.03;4860314;29;20045;-71
2021/11/30 11:30:24;;;;;;;3.93;3.10;;;;;;;-3.05;76.53;97349.47;4859497;29;20038;-69
2021/11/30 11:32:51;;;;;;;3.77;3.07;;;;;;;-3.25;76.86;97339.34;4858378;29;20394;-71
2021/11/30 11:35:21;;;;;;;6.75;3.20;;;;;;;-3.30;76.97;97325.19;4858662;29;20278;-70
2021/11/30 11:37:54;;;;;;;4.03;3.22;;;;;;;-3.68;76.13;97295.34;4843315;29;20041;-74
2021/11/30 11:40:22;;;;;;;7.05;4.88;;;;;;;-3.40;76.41;97334.94;4859266;29;20215;-67
2021/11/30 11:42:48;;;;;;;7.20;3.35;;;;;;;-3.63;76.39;97313.88;4859138;29;20038;-64
2021/11/30 11:45:14;;;;;;;3.43;2.70;;;;;;;-3.88;76.28;97306.00;4858903;29;20048;-77
2021/11/30 11:47:40;;;;;;;3.27;2.80;;;;;;;-3.70;76.43;97350.13;4843192;29;20033;-72
2021/11/30 11:50:13;;;;;;;3.70;2.67;;;;;;;-3.89;77.24;97317.34;4843877;29;20490;-71
2021/11/30 11:52:41;;;;;;;2.75;2.38;;;;;;;-3.92;76.35;97329.84;4843830;29;20303;-74
2021/11/30 11:55:18;;;;;;;3.03;2.72;;;;;;;-4.01;76.63;97326.41;4860652;29;20128;-71
2021/11/30 11:58:03;;;;;;;3.67;3.33;;;;;;;-3.93;76.73;97333.44;4860253;29;20044;-72
2021/11/30 12:00:58;;;;;;;4.35;3.65;;;;;;;-3.98;76.38;97340.88;4861001;29;20048;-71
2021/11/30 12:03:58;;;;;;;5.05;2.75;;;;;;;-3.97;76.67;97347.72;4860358;29;20116;-72